Colfax, Wisconsin
Current Conditions -  °F | °C
As of 3:15 AM on Wednesday 28 Jan 2015 (Local Time) from KLUM Reporting Station
Overcast Overcast  
Wind Chill: 19°   Ceiling: 1300
Heat Index: 27°   Visibility: 7mi
Dew Point: 22°   Wind: 8mph
Humidity: 83%   Direction: 130°SE
Pressure: 30.13"   Gusts: NA
Location:  45°N, 91.73°W
Report Text: KLUM 280915Z AUTO 13007KT 7SM OVC013 M03/M05 A3013 RMK AO2 T10281053
Loading
Personal Weather Stations






























Interactive Weather Map New forecast layout! Learn more

10-Day Weather Forecast

Advertisements
Track Severe Weather on mobile